Terminal Aerodrome Forecast
Issued by NWS Missoula, MT

Home | Current Version | Previous Version | Text Only | Print | Product List | Glossary On
Versions: 1 2 3 4 5 6 7 8 9 10 11 12 13 14 15 16 17 18
000
FTUS45 KMSO 282328
TAFMSO
TAF
KMSO 282328Z 2900/2924 31012G23KT P6SM SCT100
     FM290200 30009KT P6SM VCSH BKN070
     FM290900 VRB03KT P6SM -SHRA BKN050 OVC070
     FM291500 VRB03KT P6SM VCSH BKN070=

USA.gov is the U.S. government's official web portal to all federal, state and local government web resources and services.